sensor_id;sensor_type;location;lat;lon;timestamp;temperature;humidity
32614;DHT22;19031;51.400;6.770;2023-02-11T00:00:04;6.80;99.90
32614;DHT22;19031;51.400;6.770;2023-02-11T00:02:31;6.70;99.90
32614;DHT22;19031;51.400;6.770;2023-02-11T00:04:57;6.80;99.90
32614;DHT22;19031;51.400;6.770;2023-02-11T00:07:23;6.70;99.90
32614;DHT22;19031;51.400;6.770;2023-02-11T00:09:48;6.70;99.90
32614;DHT22;19031;51.400;6.770;2023-02-11T00:12:14;6.80;99.90
32614;DHT22;19031;51.400;6.770;2023-02-11T00:14:40;6.80;99.90
32614;DHT22;19031;51.400;6.770;2023-02-11T00:17:06;6.80;99.90
32614;DHT22;19031;51.400;6.770;2023-02-11T00:19:31;6.80;99.90
32614;DHT22;19031;51.400;6.770;2023-02-11T00:21:57;6.90;99.90
32614;DHT22;19031;51.400;6.770;2023-02-11T00:24:22;6.80;99.90
32614;DHT22;19031;51.400;6.770;2023-02-11T00:26:48;6.80;99.90
32614;DHT22;19031;51.400;6.770;2023-02-11T00:29:14;6.90;99.90
32614;DHT22;19031;51.400;6.770;2023-02-11T00:31:39;6.90;99.90
32614;DHT22;19031;51.400;6.770;2023-02-11T00:34:05;7.00;99.90
32614;DHT22;19031;51.400;6.770;2023-02-11T00:36:30;6.90;99.90
32614;DHT22;19031;51.400;6.770;2023-02-11T00:38:59;6.90;99.90
32614;DHT22;19031;51.400;6.770;2023-02-11T00:41:24;7.00;99.90
32614;DHT22;19031;51.400;6.770;2023-02-11T00:43:50;7.00;99.90
32614;DHT22;19031;51.400;6.770;2023-02-11T00:46:16;7.00;99.90
32614;DHT22;19031;51.400;6.770;2023-02-11T00:48:42;7.00;99.90
32614;DHT22;19031;51.400;6.770;2023-02-11T00:51:08;7.00;99.90
32614;DHT22;19031;51.400;6.770;2023-02-11T00:53:34;7.00;99.90
32614;DHT22;19031;51.400;6.770;2023-02-11T00:56:00;6.90;99.90
32614;DHT22;19031;51.400;6.770;2023-02-11T00:58:26;6.90;99.90
32614;DHT22;19031;51.400;6.770;2023-02-11T01:00:53;7.00;99.90
32614;DHT22;19031;51.400;6.770;2023-02-11T01:03:19;7.00;99.90
32614;DHT22;19031;51.400;6.770;2023-02-11T01:05:45;7.00;99.90
32614;DHT22;19031;51.400;6.770;2023-02-11T01:08:10;7.00;99.90
32614;DHT22;19031;51.400;6.770;2023-02-11T01:10:36;7.00;99.90
32614;DHT22;19031;51.400;6.770;2023-02-11T01:13:02;7.00;99.90
32614;DHT22;19031;51.400;6.770;2023-02-11T01:15:28;7.00;99.90
32614;DHT22;19031;51.400;6.770;2023-02-11T01:17:53;7.00;99.90
32614;DHT22;19031;51.400;6.770;2023-02-11T01:20:22;6.90;99.90
32614;DHT22;19031;51.400;6.770;2023-02-11T01:22:47;7.00;99.90
32614;DHT22;19031;51.400;6.770;2023-02-11T01:25:13;7.00;99.90
32614;DHT22;19031;51.400;6.770;2023-02-11T01:27:39;7.00;99.90
32614;DHT22;19031;51.400;6.770;2023-02-11T01:30:07;7.00;99.90
32614;DHT22;19031;51.400;6.770;2023-02-11T01:32:33;7.00;99.90
32614;DHT22;19031;51.400;6.770;2023-02-11T01:34:59;6.90;99.90
32614;DHT22;19031;51.400;6.770;2023-02-11T01:37:25;6.90;99.90
32614;DHT22;19031;51.400;6.770;2023-02-11T01:39:51;6.90;99.90
32614;DHT22;19031;51.400;6.770;2023-02-11T01:42:21;6.90;99.90
32614;DHT22;19031;51.400;6.770;2023-02-11T01:44:52;6.90;99.90
32614;DHT22;19031;51.400;6.770;2023-02-11T01:47:19;6.90;99.90
32614;DHT22;19031;51.400;6.770;2023-02-11T01:49:48;6.80;99.90
32614;DHT22;19031;51.400;6.770;2023-02-11T01:52:38;6.90;99.90
32614;DHT22;19031;51.400;6.770;2023-02-11T01:55:08;7.00;99.90
32614;DHT22;19031;51.400;6.770;2023-02-11T01:57:56;6.90;99.90
32614;DHT22;19031;51.400;6.770;2023-02-11T02:00:36;6.90;99.90
32614;DHT22;19031;51.400;6.770;2023-02-11T02:03:10;6.90;99.90
32614;DHT22;19031;51.400;6.770;2023-02-11T02:08:38;6.90;99.90
32614;DHT22;19031;51.400;6.770;2023-02-11T02:11:05;6.90;99.90
32614;DHT22;19031;51.400;6.770;2023-02-11T02:13:33;6.90;99.90
32614;DHT22;19031;51.400;6.770;2023-02-11T02:16:01;6.90;99.90
32614;DHT22;19031;51.400;6.770;2023-02-11T02:35:52;6.90;99.90
32614;DHT22;19031;51.400;6.770;2023-02-11T02:38:26;6.80;99.90
32614;DHT22;19031;51.400;6.770;2023-02-11T02:41:00;6.80;99.90
32614;DHT22;19031;51.400;6.770;2023-02-11T02:43:28;6.80;99.90
32614;DHT22;19031;51.400;6.770;2023-02-11T02:45:54;6.90;99.90
32614;DHT22;19031;51.400;6.770;2023-02-11T02:48:27;6.80;99.90
32614;DHT22;19031;51.400;6.770;2023-02-11T02:56:38;6.80;99.90
32614;DHT22;19031;51.400;6.770;2023-02-11T02:59:31;6.80;99.90
32614;DHT22;19031;51.400;6.770;2023-02-11T03:02:28;6.80;99.90
32614;DHT22;19031;51.400;6.770;2023-02-11T03:05:11;6.70;99.90
32614;DHT22;19031;51.400;6.770;2023-02-11T03:08:02;6.60;99.90
32614;DHT22;19031;51.400;6.770;2023-02-11T03:10:36;6.60;99.90
32614;DHT22;19031;51.400;6.770;2023-02-11T03:13:04;6.70;99.90
32614;DHT22;19031;51.400;6.770;2023-02-11T03:15:32;6.70;99.90
32614;DHT22;19031;51.400;6.770;2023-02-11T03:18:02;6.70;99.90
32614;DHT22;19031;51.400;6.770;2023-02-11T03:20:32;6.60;99.90
32614;DHT22;19031;51.400;6.770;2023-02-11T03:23:07;6.70;99.90
32614;DHT22;19031;51.400;6.770;2023-02-11T03:25:41;6.60;99.90
32614;DHT22;19031;51.400;6.770;2023-02-11T03:28:37;6.60;99.90
32614;DHT22;19031;51.400;6.770;2023-02-11T03:36:25;6.60;99.90
32614;DHT22;19031;51.400;6.770;2023-02-11T03:38:56;6.50;99.90
32614;DHT22;19031;51.400;6.770;2023-02-11T03:41:23;6.50;99.90
32614;DHT22;19031;51.400;6.770;2023-02-11T03:43:53;6.50;99.90
32614;DHT22;19031;51.400;6.770;2023-02-11T03:46:26;6.50;99.90
32614;DHT22;19031;51.400;6.770;2023-02-11T03:48:57;6.60;99.90
32614;DHT22;19031;51.400;6.770;2023-02-11T03:51:25;6.60;99.90
32614;DHT22;19031;51.400;6.770;2023-02-11T03:53:54;6.60;99.90
32614;DHT22;19031;51.400;6.770;2023-02-11T03:56:23;6.60;99.90
32614;DHT22;19031;51.400;6.770;2023-02-11T03:58:50;6.70;99.90
32614;DHT22;19031;51.400;6.770;2023-02-11T04:01:16;6.70;99.90
32614;DHT22;19031;51.400;6.770;2023-02-11T04:03:41;6.60;99.90
32614;DHT22;19031;51.400;6.770;2023-02-11T04:06:07;6.60;99.90
32614;DHT22;19031;51.400;6.770;2023-02-11T04:08:33;6.70;99.90
32614;DHT22;19031;51.400;6.770;2023-02-11T04:10:59;6.60;99.90
32614;DHT22;19031;51.400;6.770;2023-02-11T04:13:24;6.60;99.90
32614;DHT22;19031;51.400;6.770;2023-02-11T04:15:50;6.50;99.90
32614;DHT22;19031;51.400;6.770;2023-02-11T04:18:15;6.60;99.90
32614;DHT22;19031;51.400;6.770;2023-02-11T04:20:41;6.50;99.90
32614;DHT22;19031;51.400;6.770;2023-02-11T04:23:07;6.50;99.90
32614;DHT22;19031;51.400;6.770;2023-02-11T04:25:32;6.50;99.90
32614;DHT22;19031;51.400;6.770;2023-02-11T04:27:58;6.60;99.90
32614;DHT22;19031;51.400;6.770;2023-02-11T04:30:24;6.50;99.90
32614;DHT22;19031;51.400;6.770;2023-02-11T04:32:49;6.50;99.90
32614;DHT22;19031;51.400;6.770;2023-02-11T04:35:15;6.50;99.90
32614;DHT22;19031;51.400;6.770;2023-02-11T04:37:41;6.50;99.90
32614;DHT22;19031;51.400;6.770;2023-02-11T04:40:07;6.40;99.90
32614;DHT22;19031;51.400;6.770;2023-02-11T04:42:32;6.40;99.90
32614;DHT22;19031;51.400;6.770;2023-02-11T04:44:58;6.40;99.90
32614;DHT22;19031;51.400;6.770;2023-02-11T04:47:24;6.50;99.90
32614;DHT22;19031;51.400;6.770;2023-02-11T04:49:49;6.50;99.90
32614;DHT22;19031;51.400;6.770;2023-02-11T04:52:15;6.40;99.90
32614;DHT22;19031;51.400;6.770;2023-02-11T04:54:40;6.50;99.90
32614;DHT22;19031;51.400;6.770;2023-02-11T04:57:06;6.50;99.90
32614;DHT22;19031;51.400;6.770;2023-02-11T04:59:31;6.50;99.90
32614;DHT22;19031;51.400;6.770;2023-02-11T05:01:57;6.50;99.90
32614;DHT22;19031;51.400;6.770;2023-02-11T05:04:23;6.40;99.90
32614;DHT22;19031;51.400;6.770;2023-02-11T05:06:48;6.40;99.90
32614;DHT22;19031;51.400;6.770;2023-02-11T05:09:14;6.30;99.90
32614;DHT22;19031;51.400;6.770;2023-02-11T05:11:41;6.40;99.90
32614;DHT22;19031;51.400;6.770;2023-02-11T05:14:07;6.30;99.90
32614;DHT22;19031;51.400;6.770;2023-02-11T05:16:32;6.40;99.90
32614;DHT22;19031;51.400;6.770;2023-02-11T05:18:58;6.40;99.90
32614;DHT22;19031;51.400;6.770;2023-02-11T05:21:24;6.30;99.90
32614;DHT22;19031;51.400;6.770;2023-02-11T05:23:50;6.30;99.90
32614;DHT22;19031;51.400;6.770;2023-02-11T05:26:16;6.20;99.90
32614;DHT22;19031;51.400;6.770;2023-02-11T05:28:43;6.30;99.90
32614;DHT22;19031;51.400;6.770;2023-02-11T05:31:09;6.20;99.90
32614;DHT22;19031;51.400;6.770;2023-02-11T05:33:35;6.30;99.90
32614;DHT22;19031;51.400;6.770;2023-02-11T05:36:02;6.20;99.90
32614;DHT22;19031;51.400;6.770;2023-02-11T05:38:28;6.20;99.90
32614;DHT22;19031;51.400;6.770;2023-02-11T05:40:55;6.10;99.90
32614;DHT22;19031;51.400;6.770;2023-02-11T05:43:21;6.20;99.90
32614;DHT22;19031;51.400;6.770;2023-02-11T05:45:47;6.20;99.90
32614;DHT22;19031;51.400;6.770;2023-02-11T05:48:12;6.20;99.90
32614;DHT22;19031;51.400;6.770;2023-02-11T05:50:38;6.20;99.90
32614;DHT22;19031;51.400;6.770;2023-02-11T05:53:04;6.30;99.90
32614;DHT22;19031;51.400;6.770;2023-02-11T05:55:31;6.20;99.90
32614;DHT22;19031;51.400;6.770;2023-02-11T05:57:57;6.30;99.90
32614;DHT22;19031;51.400;6.770;2023-02-11T06:00:23;6.30;99.90
32614;DHT22;19031;51.400;6.770;2023-02-11T06:02:49;6.30;99.90
32614;DHT22;19031;51.400;6.770;2023-02-11T06:05:14;6.30;99.90
32614;DHT22;19031;51.400;6.770;2023-02-11T06:07:40;6.30;99.90
32614;DHT22;19031;51.400;6.770;2023-02-11T06:10:06;6.20;99.90
32614;DHT22;19031;51.400;6.770;2023-02-11T06:12:32;6.30;99.90
32614;DHT22;19031;51.400;6.770;2023-02-11T06:14:58;6.40;99.90
32614;DHT22;19031;51.400;6.770;2023-02-11T06:17:23;6.30;99.90
32614;DHT22;19031;51.400;6.770;2023-02-11T06:19:50;6.30;99.90
32614;DHT22;19031;51.400;6.770;2023-02-11T06:22:15;6.40;99.90
32614;DHT22;19031;51.400;6.770;2023-02-11T06:24:44;6.30;99.90
32614;DHT22;19031;51.400;6.770;2023-02-11T06:27:09;6.40;99.90
32614;DHT22;19031;51.400;6.770;2023-02-11T06:29:35;6.30;99.90
32614;DHT22;19031;51.400;6.770;2023-02-11T06:32:01;6.30;99.90
32614;DHT22;19031;51.400;6.770;2023-02-11T06:34:26;6.30;99.90
32614;DHT22;19031;51.400;6.770;2023-02-11T06:36:52;6.30;99.90
32614;DHT22;19031;51.400;6.770;2023-02-11T06:39:17;6.30;99.90
32614;DHT22;19031;51.400;6.770;2023-02-11T06:41:43;6.40;99.90
32614;DHT22;19031;51.400;6.770;2023-02-11T06:44:09;6.30;99.90
32614;DHT22;19031;51.400;6.770;2023-02-11T06:46:37;6.30;99.90
32614;DHT22;19031;51.400;6.770;2023-02-11T06:49:03;6.40;99.90
32614;DHT22;19031;51.400;6.770;2023-02-11T06:51:31;6.40;99.90
32614;DHT22;19031;51.400;6.770;2023-02-11T06:53:57;6.30;99.90
32614;DHT22;19031;51.400;6.770;2023-02-11T06:56:23;6.40;99.90
32614;DHT22;19031;51.400;6.770;2023-02-11T06:58:53;6.50;99.90
32614;DHT22;19031;51.400;6.770;2023-02-11T07:01:23;6.30;99.90
32614;DHT22;19031;51.400;6.770;2023-02-11T07:03:49;6.50;99.90
32614;DHT22;19031;51.400;6.770;2023-02-11T07:06:18;6.40;99.90
32614;DHT22;19031;51.400;6.770;2023-02-11T07:08:44;6.50;99.90
32614;DHT22;19031;51.400;6.770;2023-02-11T07:11:19;6.40;99.90
32614;DHT22;19031;51.400;6.770;2023-02-11T07:13:45;6.40;99.90
32614;DHT22;19031;51.400;6.770;2023-02-11T07:16:14;6.40;99.90
32614;DHT22;19031;51.400;6.770;2023-02-11T07:18:40;6.40;99.90
32614;DHT22;19031;51.400;6.770;2023-02-11T07:21:10;6.50;99.90
32614;DHT22;19031;51.400;6.770;2023-02-11T07:23:39;6.50;99.90
32614;DHT22;19031;51.400;6.770;2023-02-11T07:26:11;6.50;99.90
32614;DHT22;19031;51.400;6.770;2023-02-11T07:28:37;6.60;99.90
32614;DHT22;19031;51.400;6.770;2023-02-11T07:33:39;6.40;99.90
32614;DHT22;19031;51.400;6.770;2023-02-11T07:36:06;6.50;99.90
32614;DHT22;19031;51.400;6.770;2023-02-11T07:38:33;6.50;99.90
32614;DHT22;19031;51.400;6.770;2023-02-11T07:41:04;6.50;99.90
32614;DHT22;19031;51.400;6.770;2023-02-11T07:43:31;6.60;99.90
32614;DHT22;19031;51.400;6.770;2023-02-11T07:45:57;6.50;99.90
32614;DHT22;19031;51.400;6.770;2023-02-11T07:48:22;6.50;99.90
32614;DHT22;19031;51.400;6.770;2023-02-11T07:50:48;6.50;99.90
32614;DHT22;19031;51.400;6.770;2023-02-11T07:53:13;6.50;99.90
32614;DHT22;19031;51.400;6.770;2023-02-11T07:55:39;6.60;99.90
32614;DHT22;19031;51.400;6.770;2023-02-11T07:58:05;6.60;99.90
32614;DHT22;19031;51.400;6.770;2023-02-11T08:00:30;6.60;99.90
32614;DHT22;19031;51.400;6.770;2023-02-11T08:02:56;6.70;99.90
32614;DHT22;19031;51.400;6.770;2023-02-11T08:05:22;6.70;99.90
32614;DHT22;19031;51.400;6.770;2023-02-11T08:07:52;6.70;99.90
32614;DHT22;19031;51.400;6.770;2023-02-11T08:10:18;6.70;99.90
32614;DHT22;19031;51.400;6.770;2023-02-11T08:12:44;6.70;99.90
32614;DHT22;19031;51.400;6.770;2023-02-11T08:15:09;6.80;99.90
32614;DHT22;19031;51.400;6.770;2023-02-11T08:17:35;6.80;99.90
32614;DHT22;19031;51.400;6.770;2023-02-11T08:20:02;6.80;99.90
32614;DHT22;19031;51.400;6.770;2023-02-11T08:22:30;6.90;99.90
32614;DHT22;19031;51.400;6.770;2023-02-11T08:24:56;6.80;99.90
32614;DHT22;19031;51.400;6.770;2023-02-11T08:27:23;6.80;99.90
32614;DHT22;19031;51.400;6.770;2023-02-11T08:29:49;6.80;99.90
32614;DHT22;19031;51.400;6.770;2023-02-11T08:32:14;6.80;99.90
32614;DHT22;19031;51.400;6.770;2023-02-11T08:34:40;6.90;99.90
32614;DHT22;19031;51.400;6.770;2023-02-11T08:37:05;6.90;99.90
32614;DHT22;19031;51.400;6.770;2023-02-11T08:39:31;6.90;99.90
32614;DHT22;19031;51.400;6.770;2023-02-11T08:41:57;7.00;99.90
32614;DHT22;19031;51.400;6.770;2023-02-11T08:44:22;7.00;99.90
32614;DHT22;19031;51.400;6.770;2023-02-11T08:46:48;7.10;99.90
32614;DHT22;19031;51.400;6.770;2023-02-11T08:49:15;7.20;99.90
32614;DHT22;19031;51.400;6.770;2023-02-11T08:51:41;7.00;99.90
32614;DHT22;19031;51.400;6.770;2023-02-11T08:54:07;7.10;99.90
32614;DHT22;19031;51.400;6.770;2023-02-11T08:56:34;7.10;99.90
32614;DHT22;19031;51.400;6.770;2023-02-11T08:59:00;7.10;99.90
32614;DHT22;19031;51.400;6.770;2023-02-11T09:01:29;7.20;99.90
32614;DHT22;19031;51.400;6.770;2023-02-11T09:03:56;7.20;99.90
32614;DHT22;19031;51.400;6.770;2023-02-11T09:06:22;7.20;99.90
32614;DHT22;19031;51.400;6.770;2023-02-11T09:08:52;7.30;99.90
32614;DHT22;19031;51.400;6.770;2023-02-11T09:11:21;7.30;99.90
32614;DHT22;19031;51.400;6.770;2023-02-11T09:13:47;7.50;99.90
32614;DHT22;19031;51.400;6.770;2023-02-11T09:16:19;7.40;99.90
32614;DHT22;19031;51.400;6.770;2023-02-11T09:18:45;7.40;99.90
32614;DHT22;19031;51.400;6.770;2023-02-11T09:21:11;7.50;99.90
32614;DHT22;19031;51.400;6.770;2023-02-11T09:23:37;7.50;99.90
32614;DHT22;19031;51.400;6.770;2023-02-11T09:28:45;7.70;99.90
32614;DHT22;19031;51.400;6.770;2023-02-11T09:31:14;7.70;99.90
32614;DHT22;19031;51.400;6.770;2023-02-11T09:33:41;7.60;99.90
32614;DHT22;19031;51.400;6.770;2023-02-11T09:36:16;7.70;99.90
32614;DHT22;19031;51.400;6.770;2023-02-11T09:38:43;7.80;99.90
32614;DHT22;19031;51.400;6.770;2023-02-11T09:43:58;7.80;99.90
32614;DHT22;19031;51.400;6.770;2023-02-11T09:46:30;8.00;99.90
32614;DHT22;19031;51.400;6.770;2023-02-11T09:49:01;8.10;99.90
32614;DHT22;19031;51.400;6.770;2023-02-11T09:54:25;8.00;99.90
32614;DHT22;19031;51.400;6.770;2023-02-11T09:56:52;8.00;99.90
32614;DHT22;19031;51.400;6.770;2023-02-11T09:59:18;7.90;99.90
32614;DHT22;19031;51.400;6.770;2023-02-11T10:01:55;8.00;99.90
32614;DHT22;19031;51.400;6.770;2023-02-11T10:06:56;8.00;99.90
32614;DHT22;19031;51.400;6.770;2023-02-11T10:09:47;8.10;99.90
32614;DHT22;19031;51.400;6.770;2023-02-11T10:15:19;8.20;99.90
32614;DHT22;19031;51.400;6.770;2023-02-11T10:23:01;8.10;99.90
32614;DHT22;19031;51.400;6.770;2023-02-11T10:25:38;8.10;99.90
32614;DHT22;19031;51.400;6.770;2023-02-11T10:28:27;8.20;99.90
32614;DHT22;19031;51.400;6.770;2023-02-11T10:31:01;8.20;99.90
32614;DHT22;19031;51.400;6.770;2023-02-11T10:33:39;8.20;99.90
32614;DHT22;19031;51.400;6.770;2023-02-11T10:36:10;8.00;99.90
32614;DHT22;19031;51.400;6.770;2023-02-11T10:38:36;8.20;99.90
32614;DHT22;19031;51.400;6.770;2023-02-11T10:41:02;8.20;99.90
32614;DHT22;19031;51.400;6.770;2023-02-11T10:43:29;8.20;99.90
32614;DHT22;19031;51.400;6.770;2023-02-11T10:46:02;8.30;99.90
32614;DHT22;19031;51.400;6.770;2023-02-11T10:48:50;8.30;99.90
32614;DHT22;19031;51.400;6.770;2023-02-11T10:51:26;8.30;99.90
32614;DHT22;19031;51.400;6.770;2023-02-11T10:56:40;8.40;99.90
32614;DHT22;19031;51.400;6.770;2023-02-11T10:59:19;8.50;99.90
32614;DHT22;19031;51.400;6.770;2023-02-11T11:02:04;8.40;99.90
32614;DHT22;19031;51.400;6.770;2023-02-11T11:04:42;8.50;99.90
32614;DHT22;19031;51.400;6.770;2023-02-11T11:07:22;8.60;99.90
32614;DHT22;19031;51.400;6.770;2023-02-11T11:10:07;8.40;99.90
32614;DHT22;19031;51.400;6.770;2023-02-11T11:12:48;8.50;99.90
32614;DHT22;19031;51.400;6.770;2023-02-11T11:15:19;8.60;99.90
32614;DHT22;19031;51.400;6.770;2023-02-11T11:17:49;8.50;99.90
32614;DHT22;19031;51.400;6.770;2023-02-11T11:22:51;8.50;99.90
32614;DHT22;19031;51.400;6.770;2023-02-11T11:25:22;8.60;99.90
32614;DHT22;19031;51.400;6.770;2023-02-11T11:27:50;8.70;99.90
32614;DHT22;19031;51.400;6.770;2023-02-11T11:30:16;8.60;99.90
32614;DHT22;19031;51.400;6.770;2023-02-11T11:32:42;8.60;99.90
32614;DHT22;19031;51.400;6.770;2023-02-11T11:35:22;8.60;99.90
32614;DHT22;19031;51.400;6.770;2023-02-11T11:38:02;8.60;99.90
32614;DHT22;19031;51.400;6.770;2023-02-11T11:40:33;8.80;99.90
32614;DHT22;19031;51.400;6.770;2023-02-11T11:43:16;8.70;99.90
32614;DHT22;19031;51.400;6.770;2023-02-11T11:45:56;8.70;99.90
32614;DHT22;19031;51.400;6.770;2023-02-11T11:48:28;8.80;99.90
32614;DHT22;19031;51.400;6.770;2023-02-11T11:53:50;8.60;99.90
32614;DHT22;19031;51.400;6.770;2023-02-11T11:56:23;8.60;99.90
32614;DHT22;19031;51.400;6.770;2023-02-11T11:58:50;8.80;99.90
32614;DHT22;19031;51.400;6.770;2023-02-11T12:09:44;9.10;99.90
32614;DHT22;19031;51.400;6.770;2023-02-11T12:56:20;9.00;99.90
32614;DHT22;19031;51.400;6.770;2023-02-11T12:58:51;9.00;99.90
32614;DHT22;19031;51.400;6.770;2023-02-11T13:01:30;9.00;99.90
32614;DHT22;19031;51.400;6.770;2023-02-11T13:04:20;9.00;99.90
32614;DHT22;19031;51.400;6.770;2023-02-11T13:06:56;9.00;99.90
32614;DHT22;19031;51.400;6.770;2023-02-11T13:09:34;9.00;99.90
32614;DHT22;19031;51.400;6.770;2023-02-11T13:12:03;9.20;99.90
32614;DHT22;19031;51.400;6.770;2023-02-11T13:14:56;9.20;99.90
32614;DHT22;19031;51.400;6.770;2023-02-11T13:17:38;9.30;99.90
32614;DHT22;19031;51.400;6.770;2023-02-11T13:20:35;9.30;99.90
32614;DHT22;19031;51.400;6.770;2023-02-11T13:23:10;9.40;99.90
32614;DHT22;19031;51.400;6.770;2023-02-11T13:26:04;9.40;99.90
32614;DHT22;19031;51.400;6.770;2023-02-11T13:31:33;9.50;99.90
32614;DHT22;19031;51.400;6.770;2023-02-11T13:33:58;9.50;99.90
32614;DHT22;19031;51.400;6.770;2023-02-11T13:36:29;9.60;99.90
32614;DHT22;19031;51.400;6.770;2023-02-11T13:39:19;9.50;99.90
32614;DHT22;19031;51.400;6.770;2023-02-11T13:41:45;9.50;99.90
32614;DHT22;19031;51.400;6.770;2023-02-11T13:47:05;9.60;99.90
32614;DHT22;19031;51.400;6.770;2023-02-11T13:49:37;9.50;99.90
32614;DHT22;19031;51.400;6.770;2023-02-11T13:52:30;9.50;99.90
32614;DHT22;19031;51.400;6.770;2023-02-11T13:55:21;9.40;99.90
32614;DHT22;19031;51.400;6.770;2023-02-11T14:09:09;9.30;99.90
32614;DHT22;19031;51.400;6.770;2023-02-11T14:11:54;9.30;99.90
32614;DHT22;19031;51.400;6.770;2023-02-11T14:17:41;9.40;99.90
32614;DHT22;19031;51.400;6.770;2023-02-11T14:20:36;9.50;99.90
32614;DHT22;19031;51.400;6.770;2023-02-11T14:23:03;9.60;99.90
32614;DHT22;19031;51.400;6.770;2023-02-11T14:25:30;9.60;99.90
32614;DHT22;19031;51.400;6.770;2023-02-11T14:28:23;9.70;99.90
32614;DHT22;19031;51.400;6.770;2023-02-11T14:30:56;9.80;99.90
32614;DHT22;19031;51.400;6.770;2023-02-11T14:36:38;9.90;99.90
32614;DHT22;19031;51.400;6.770;2023-02-11T14:39:24;9.90;99.90
32614;DHT22;19031;51.400;6.770;2023-02-11T14:41:52;9.90;99.90
32614;DHT22;19031;51.400;6.770;2023-02-11T14:44:22;9.80;99.90
32614;DHT22;19031;51.400;6.770;2023-02-11T14:46:50;9.90;99.90
32614;DHT22;19031;51.400;6.770;2023-02-11T14:49:21;10.00;99.90
32614;DHT22;19031;51.400;6.770;2023-02-11T14:51:54;10.10;99.90
32614;DHT22;19031;51.400;6.770;2023-02-11T14:54:24;10.20;99.90
32614;DHT22;19031;51.400;6.770;2023-02-11T14:57:17;10.30;99.90
32614;DHT22;19031;51.400;6.770;2023-02-11T15:00:02;10.40;99.90
32614;DHT22;19031;51.400;6.770;2023-02-11T15:02:33;10.40;99.90
32614;DHT22;19031;51.400;6.770;2023-02-11T15:05:26;10.40;99.90
32614;DHT22;19031;51.400;6.770;2023-02-11T15:07:58;10.50;99.90
32614;DHT22;19031;51.400;6.770;2023-02-11T15:10:30;10.40;99.90
32614;DHT22;19031;51.400;6.770;2023-02-11T15:12:58;10.50;99.90
32614;DHT22;19031;51.400;6.770;2023-02-11T15:15:25;10.40;99.90
32614;DHT22;19031;51.400;6.770;2023-02-11T15:17:51;10.40;99.90
32614;DHT22;19031;51.400;6.770;2023-02-11T15:20:23;10.30;99.90
32614;DHT22;19031;51.400;6.770;2023-02-11T15:22:57;10.20;99.90
32614;DHT22;19031;51.400;6.770;2023-02-11T15:25:24;10.20;99.90
32614;DHT22;19031;51.400;6.770;2023-02-11T15:27:54;10.10;99.90
32614;DHT22;19031;51.400;6.770;2023-02-11T15:30:32;9.90;99.90
32614;DHT22;19031;51.400;6.770;2023-02-11T15:33:02;9.90;99.90
32614;DHT22;19031;51.400;6.770;2023-02-11T15:35:33;9.90;99.90
32614;DHT22;19031;51.400;6.770;2023-02-11T15:38:10;9.80;99.90
32614;DHT22;19031;51.400;6.770;2023-02-11T15:40:37;9.80;99.90
32614;DHT22;19031;51.400;6.770;2023-02-11T15:43:06;9.80;99.90
32614;DHT22;19031;51.400;6.770;2023-02-11T15:48:42;9.70;99.90
32614;DHT22;19031;51.400;6.770;2023-02-11T15:51:21;9.60;99.90
32614;DHT22;19031;51.400;6.770;2023-02-11T15:54:05;9.60;99.90
32614;DHT22;19031;51.400;6.770;2023-02-11T15:56:38;9.50;99.90
32614;DHT22;19031;51.400;6.770;2023-02-11T15:59:18;9.50;99.90
32614;DHT22;19031;51.400;6.770;2023-02-11T16:01:46;9.50;99.90
32614;DHT22;19031;51.400;6.770;2023-02-11T16:04:16;9.40;99.90
32614;DHT22;19031;51.400;6.770;2023-02-11T16:06:43;9.40;99.90
32614;DHT22;19031;51.400;6.770;2023-02-11T16:19:46;9.30;99.90
32614;DHT22;19031;51.400;6.770;2023-02-11T16:22:25;9.30;99.90
32614;DHT22;19031;51.400;6.770;2023-02-11T16:24:52;9.40;99.90
32614;DHT22;19031;51.400;6.770;2023-02-11T16:27:27;9.30;99.90
32614;DHT22;19031;51.400;6.770;2023-02-11T16:29:55;9.30;99.90
32614;DHT22;19031;51.400;6.770;2023-02-11T16:32:27;9.20;99.90
32614;DHT22;19031;51.400;6.770;2023-02-11T16:34:55;9.20;99.90
32614;DHT22;19031;51.400;6.770;2023-02-11T16:37:23;9.20;99.90
32614;DHT22;19031;51.400;6.770;2023-02-11T16:39:49;9.20;99.90
32614;DHT22;19031;51.400;6.770;2023-02-11T16:42:17;9.20;99.90
32614;DHT22;19031;51.400;6.770;2023-02-11T16:44:43;9.10;99.90
32614;DHT22;19031;51.400;6.770;2023-02-11T16:47:26;9.20;99.90
32614;DHT22;19031;51.400;6.770;2023-02-11T16:49:52;9.10;99.90
32614;DHT22;19031;51.400;6.770;2023-02-11T16:52:22;9.10;99.90
32614;DHT22;19031;51.400;6.770;2023-02-11T16:54:51;9.10;99.90
32614;DHT22;19031;51.400;6.770;2023-02-11T16:57:21;9.10;99.90
32614;DHT22;19031;51.400;6.770;2023-02-11T16:59:48;9.10;99.90
32614;DHT22;19031;51.400;6.770;2023-02-11T17:02:29;9.10;99.90
32614;DHT22;19031;51.400;6.770;2023-02-11T17:05:00;9.00;99.90
32614;DHT22;19031;51.400;6.770;2023-02-11T17:07:30;9.10;99.90
32614;DHT22;19031;51.400;6.770;2023-02-11T17:09:55;9.00;99.90
32614;DHT22;19031;51.400;6.770;2023-02-11T17:12:24;9.10;99.90
32614;DHT22;19031;51.400;6.770;2023-02-11T17:14:51;9.00;99.90
32614;DHT22;19031;51.400;6.770;2023-02-11T17:17:16;9.00;99.90
32614;DHT22;19031;51.400;6.770;2023-02-11T17:19:45;9.00;99.90
32614;DHT22;19031;51.400;6.770;2023-02-11T17:22:12;9.00;99.90
32614;DHT22;19031;51.400;6.770;2023-02-11T17:24:40;8.90;99.90
32614;DHT22;19031;51.400;6.770;2023-02-11T17:27:10;8.90;99.90
32614;DHT22;19031;51.400;6.770;2023-02-11T17:29:36;8.90;99.90
32614;DHT22;19031;51.400;6.770;2023-02-11T17:32:04;8.90;99.90
32614;DHT22;19031;51.400;6.770;2023-02-11T17:34:30;8.90;99.90
32614;DHT22;19031;51.400;6.770;2023-02-11T17:36:56;8.90;99.90
32614;DHT22;19031;51.400;6.770;2023-02-11T17:39:24;9.00;99.90
32614;DHT22;19031;51.400;6.770;2023-02-11T17:41:53;8.90;99.90
32614;DHT22;19031;51.400;6.770;2023-02-11T17:44:18;8.90;99.90
32614;DHT22;19031;51.400;6.770;2023-02-11T17:46:44;8.90;99.90
32614;DHT22;19031;51.400;6.770;2023-02-11T17:49:11;8.90;99.90
32614;DHT22;19031;51.400;6.770;2023-02-11T17:51:38;8.90;99.90
32614;DHT22;19031;51.400;6.770;2023-02-11T17:54:13;8.90;99.90
32614;DHT22;19031;51.400;6.770;2023-02-11T17:56:40;8.90;99.90
32614;DHT22;19031;51.400;6.770;2023-02-11T17:59:07;8.90;99.90
32614;DHT22;19031;51.400;6.770;2023-02-11T18:01:37;8.80;99.90
32614;DHT22;19031;51.400;6.770;2023-02-11T18:04:04;8.80;99.90
32614;DHT22;19031;51.400;6.770;2023-02-11T18:06:33;8.80;99.90
32614;DHT22;19031;51.400;6.770;2023-02-11T18:09:18;8.70;99.90
32614;DHT22;19031;51.400;6.770;2023-02-11T18:11:44;8.70;99.90
32614;DHT22;19031;51.400;6.770;2023-02-11T18:14:10;8.70;99.90
32614;DHT22;19031;51.400;6.770;2023-02-11T18:16:36;8.80;99.90
32614;DHT22;19031;51.400;6.770;2023-02-11T18:19:04;8.80;99.90
32614;DHT22;19031;51.400;6.770;2023-02-11T18:21:31;8.70;99.90
32614;DHT22;19031;51.400;6.770;2023-02-11T18:23:57;8.80;99.90
32614;DHT22;19031;51.400;6.770;2023-02-11T18:26:23;8.70;99.90
32614;DHT22;19031;51.400;6.770;2023-02-11T18:28:53;8.60;99.90
32614;DHT22;19031;51.400;6.770;2023-02-11T18:31:19;8.70;99.90